createdAt,value
2022-12-16T00:00:20.660Z,-5.71
2022-12-16T00:03:10.430Z,-5.73
2022-12-16T00:05:42.861Z,-6.14
2022-12-16T00:08:12.991Z,-5.77
2022-12-16T00:10:54.933Z,-5.74
2022-12-16T00:13:24.653Z,-5.76
2022-12-16T00:15:52.950Z,-5.74
2022-12-16T00:18:23.800Z,-5.87
2022-12-16T00:20:54.824Z,-5.77
2022-12-16T00:23:24.162Z,-5.79
2022-12-16T00:25:53.058Z,-5.80
2022-12-16T00:28:23.273Z,-5.84
2022-12-16T00:30:52.532Z,-5.79
2022-12-16T00:33:27.401Z,-5.82
2022-12-16T00:35:59.313Z,-5.82
2022-12-16T00:38:28.935Z,-5.82
2022-12-16T00:40:57.101Z,-5.81
2022-12-16T00:43:25.744Z,-5.78
2022-12-16T00:45:54.005Z,-5.79
2022-12-16T00:48:24.178Z,-5.90
2022-12-16T00:50:55.415Z,-5.74
2022-12-16T00:53:25.598Z,-5.69
2022-12-16T00:55:54.462Z,-6.08
2022-12-16T00:58:23.434Z,-5.74
2022-12-16T01:00:55.384Z,-5.71
2022-12-16T01:03:25.959Z,-5.73
2022-12-16T01:05:54.323Z,-5.71
2022-12-16T01:08:22.948Z,-5.71
2022-12-16T01:10:52.776Z,-5.71
2022-12-16T01:13:22.777Z,-5.94
2022-12-16T01:15:51.302Z,-5.69
2022-12-16T01:18:20.904Z,-5.67
2022-12-16T01:20:50.598Z,-5.71
2022-12-16T01:23:19.167Z,-5.74
2022-12-16T01:25:52.396Z,-5.66
2022-12-16T01:28:20.986Z,-5.64
2022-12-16T01:30:49.201Z,-5.67
2022-12-16T01:33:18.255Z,-5.63
2022-12-16T01:35:55.220Z,-5.67
2022-12-16T01:38:26.200Z,-5.72
2022-12-16T01:40:55.187Z,-5.68
2022-12-16T01:43:28.172Z,-5.64
2022-12-16T01:46:00.370Z,-5.63
2022-12-16T01:48:39.605Z,-5.74
2022-12-16T01:51:11.657Z,-5.66
2022-12-16T01:53:44.735Z,-5.67
2022-12-16T01:56:18.954Z,-5.64
2022-12-16T01:58:48.438Z,-5.64
2022-12-16T02:01:18.462Z,-5.64
2022-12-16T02:03:49.112Z,-5.64
2022-12-16T02:06:17.504Z,-5.60
2022-12-16T02:08:50.368Z,-5.69
2022-12-16T02:11:44.070Z,-5.57
2022-12-16T02:14:28.707Z,-5.60
2022-12-16T02:17:01.787Z,-5.61
2022-12-16T02:20:05.862Z,-5.62
2022-12-16T02:22:48.441Z,-5.54
2022-12-16T02:25:47.410Z,-5.59
2022-12-16T02:28:33.804Z,-5.64
2022-12-16T02:31:14.616Z,-5.64
2022-12-16T02:34:02.451Z,-5.64
2022-12-16T02:36:44.145Z,-5.98
2022-12-16T02:39:16.487Z,-5.73
2022-12-16T02:41:51.773Z,-5.72
2022-12-16T02:44:22.330Z,-5.84
2022-12-16T02:46:56.739Z,-5.79
2022-12-16T02:49:46.650Z,-5.77
2022-12-16T02:52:16.623Z,-5.77
2022-12-16T02:54:46.132Z,-5.87
2022-12-16T02:57:29.519Z,-5.84
2022-12-16T03:00:03.789Z,-5.89
2022-12-16T03:02:42.699Z,-5.96
2022-12-16T03:05:18.022Z,-5.94
2022-12-16T03:07:48.672Z,-5.80
2022-12-16T03:10:20.632Z,-5.74
2022-12-16T03:12:49.238Z,-5.77
2022-12-16T03:15:21.405Z,-5.75
2022-12-16T03:17:53.954Z,-5.71
2022-12-16T03:20:27.996Z,-5.70
2022-12-16T03:23:00.939Z,-5.64
2022-12-16T03:25:31.215Z,-5.72
2022-12-16T03:28:05.218Z,-5.66
2022-12-16T03:34:11.625Z,-5.97
2022-12-16T03:36:42.709Z,-5.96
2022-12-16T03:39:12.751Z,-5.78
2022-12-16T03:41:42.847Z,-5.76
2022-12-16T03:44:13.033Z,-5.76
2022-12-16T03:46:41.595Z,-5.72
2022-12-16T03:49:11.671Z,-5.68
2022-12-16T03:51:39.954Z,-5.63
2022-12-16T03:54:08.455Z,-5.69
2022-12-16T03:56:37.263Z,-5.70
2022-12-16T03:59:05.761Z,-5.74
2022-12-16T04:01:34.207Z,-5.77
2022-12-16T04:04:02.886Z,-5.81
2022-12-16T04:06:32.657Z,-5.76
2022-12-16T04:09:01.183Z,-6.09
2022-12-16T04:11:46.773Z,-5.97
2022-12-16T04:14:32.529Z,-5.76
2022-12-16T04:17:18.562Z,-5.77
2022-12-16T04:20:07.275Z,-5.77
2022-12-16T04:22:58.743Z,-5.81
2022-12-16T04:25:32.683Z,-5.75
2022-12-16T04:28:01.454Z,-5.77
2022-12-16T04:30:34.907Z,-5.80
2022-12-16T04:33:23.570Z,-6.13
2022-12-16T04:36:09.413Z,-5.75
2022-12-16T04:38:57.922Z,-5.70
2022-12-16T04:41:44.016Z,-5.74
2022-12-16T04:44:29.794Z,-5.81
2022-12-16T04:47:16.395Z,-5.87
2022-12-16T04:50:02.168Z,-5.81
2022-12-16T04:52:51.327Z,-5.84
2022-12-16T04:55:38.653Z,-5.90
2022-12-16T04:58:24.928Z,-5.88
2022-12-16T05:01:10.863Z,-5.89
2022-12-16T05:03:57.243Z,-5.92
2022-12-16T05:06:42.763Z,-5.97
2022-12-16T05:09:29.014Z,-5.97
2022-12-16T05:12:16.249Z,-5.94
2022-12-16T05:15:05.263Z,-5.94
2022-12-16T05:17:50.757Z,-5.89
2022-12-16T05:20:37.320Z,-5.91
2022-12-16T05:23:22.866Z,-5.89
2022-12-16T05:26:09.154Z,-5.90
2022-12-16T05:28:56.407Z,-5.82
2022-12-16T05:31:42.659Z,-5.96
2022-12-16T05:34:30.552Z,-5.90
2022-12-16T05:37:16.562Z,-5.77
2022-12-16T05:40:07.683Z,-5.73
2022-12-16T05:42:53.606Z,-5.92
2022-12-16T05:45:40.539Z,-5.84
2022-12-16T05:48:26.586Z,-5.70
2022-12-16T05:51:12.219Z,-5.64
2022-12-16T05:53:58.123Z,-5.66
2022-12-16T05:56:43.870Z,-5.69
2022-12-16T05:59:28.884Z,-5.71
2022-12-16T06:02:16.373Z,-5.73
2022-12-16T06:05:02.356Z,-5.69
2022-12-16T06:07:47.472Z,-5.71
2022-12-16T06:10:33.635Z,-5.75
2022-12-16T06:13:19.191Z,-5.66
2022-12-16T06:16:13.729Z,-5.64
2022-12-16T06:19:00.933Z,-5.63
2022-12-16T06:21:47.362Z,-5.64
2022-12-16T06:24:33.090Z,-5.72
2022-12-16T06:27:18.761Z,-5.74
2022-12-16T06:30:05.040Z,-5.74
2022-12-16T06:32:51.069Z,-5.70
2022-12-16T06:35:34.534Z,-5.65
2022-12-16T06:38:20.354Z,-5.67
2022-12-16T06:41:14.466Z,-5.65
2022-12-16T06:44:00.573Z,-5.68
2022-12-16T06:46:46.339Z,-5.70
2022-12-16T06:49:32.198Z,-5.72
2022-12-16T06:52:19.469Z,-5.90
2022-12-16T06:55:05.774Z,-5.59
2022-12-16T06:57:51.356Z,-5.60
2022-12-16T07:00:37.742Z,-5.59
2022-12-16T07:03:23.558Z,-5.59
2022-12-16T07:06:11.740Z,-5.57
2022-12-16T07:08:59.204Z,-5.66
2022-12-16T07:11:45.602Z,-5.61
2022-12-16T07:14:31.268Z,-5.67
2022-12-16T07:17:19.312Z,-5.57
2022-12-16T07:20:05.095Z,-5.54
2022-12-16T07:23:01.028Z,-5.51
2022-12-16T07:25:51.739Z,-5.55
2022-12-16T07:28:37.867Z,-5.48
2022-12-16T07:31:23.761Z,-5.42
2022-12-16T07:34:10.095Z,-5.34
2022-12-16T07:36:55.752Z,-5.51
2022-12-16T07:39:41.975Z,-5.41
2022-12-16T07:42:29.371Z,-5.39
2022-12-16T07:45:15.458Z,-5.30
2022-12-16T07:48:05.890Z,-5.38
2022-12-16T07:50:52.098Z,-5.38
2022-12-16T07:53:39.480Z,-5.41
2022-12-16T07:56:26.178Z,-5.37
2022-12-16T07:59:13.512Z,-5.66
2022-12-16T08:01:59.858Z,-5.43
2022-12-16T08:04:45.666Z,-5.48
2022-12-16T08:07:32.019Z,-5.50
2022-12-16T08:10:17.868Z,-5.46
2022-12-16T08:13:04.144Z,-5.41
2022-12-16T08:15:51.484Z,-5.37
2022-12-16T08:18:37.412Z,-5.33
2022-12-16T08:21:23.058Z,-5.36
2022-12-16T08:24:09.304Z,-5.31
2022-12-16T08:26:55.062Z,-5.35
2022-12-16T08:29:45.387Z,-5.35
2022-12-16T08:32:33.580Z,-5.37
2022-12-16T08:35:19.986Z,-5.27
2022-12-16T08:38:12.067Z,-5.37
2022-12-16T08:41:01.233Z,-5.19
2022-12-16T08:43:49.343Z,-5.15
2022-12-16T08:46:35.578Z,-5.14
2022-12-16T08:49:23.031Z,-5.23
2022-12-16T08:52:10.458Z,-5.17
2022-12-16T08:54:56.175Z,-5.18
2022-12-16T08:57:47.879Z,-5.16
2022-12-16T09:00:36.419Z,-5.22
2022-12-16T09:03:22.479Z,-5.24
2022-12-16T09:06:11.969Z,-5.18
2022-12-16T09:08:57.952Z,-5.07
2022-12-16T09:11:43.715Z,-5.13
2022-12-16T09:14:29.717Z,-5.02
2022-12-16T09:17:15.703Z,-4.99
2022-12-16T09:20:01.857Z,-5.36
2022-12-16T09:22:49.129Z,-4.87
2022-12-16T09:25:35.171Z,-4.89
2022-12-16T09:28:21.113Z,-4.83
2022-12-16T09:31:07.218Z,-4.78
2022-12-16T09:33:53.442Z,-4.68
2022-12-16T09:36:39.619Z,-4.66
2022-12-16T09:39:27.132Z,-4.51
2022-12-16T09:42:22.282Z,-4.47
2022-12-16T09:45:16.779Z,-4.51
2022-12-16T09:48:09.871Z,-4.51
2022-12-16T09:50:58.598Z,-4.48
2022-12-16T09:53:46.874Z,-4.49
2022-12-16T09:56:38.014Z,-4.58
2022-12-16T09:59:29.888Z,-4.48
2022-12-16T10:02:16.380Z,-4.62
2022-12-16T10:05:05.402Z,-4.41
2022-12-16T10:07:57.239Z,-4.37
2022-12-16T10:10:48.864Z,-4.38
2022-12-16T10:13:46.449Z,-4.40
2022-12-16T10:16:42.098Z,-4.46
2022-12-16T10:19:42.614Z,-4.37
2022-12-16T10:22:36.019Z,-4.27
2022-12-16T10:25:30.921Z,-4.20
2022-12-16T10:28:25.206Z,-4.58
2022-12-16T10:31:12.264Z,-4.63
2022-12-16T10:34:08.144Z,-4.68
2022-12-16T10:36:56.324Z,-4.78
2022-12-16T10:39:48.057Z,-4.79
2022-12-16T10:42:41.887Z,-4.62
2022-12-16T10:45:52.764Z,-4.64
2022-12-16T10:48:54.980Z,-4.82
2022-12-16T10:51:46.374Z,-4.60
2022-12-16T10:54:51.700Z,-4.49
2022-12-16T10:57:51.211Z,-4.24
2022-12-16T11:00:40.050Z,-4.08
2022-12-16T11:03:37.921Z,-4.15
2022-12-16T11:06:26.523Z,-4.16
2022-12-16T11:09:12.765Z,-4.20
2022-12-16T11:11:58.267Z,-4.17
2022-12-16T11:15:05.775Z,-4.11
2022-12-16T11:17:51.626Z,-3.95
2022-12-16T11:20:39.585Z,-4.01
2022-12-16T11:23:44.305Z,-4.38
2022-12-16T11:26:37.211Z,-4.70
2022-12-16T11:29:29.521Z,-4.87
2022-12-16T11:32:31.729Z,-4.94
2022-12-16T11:35:19.101Z,-4.71
2022-12-16T11:38:07.047Z,-4.78
2022-12-16T11:40:55.283Z,-4.77
2022-12-16T11:43:44.107Z,-4.91
2022-12-16T11:46:33.311Z,-4.79
2022-12-16T11:49:25.312Z,-4.77
2022-12-16T11:52:35.985Z,-4.70
2022-12-16T11:56:03.271Z,-4.67
2022-12-16T11:58:50.003Z,-4.86
2022-12-16T12:01:45.481Z,-5.00
2022-12-16T12:04:32.857Z,-4.92
2022-12-16T12:07:45.406Z,-5.66
2022-12-16T12:11:03.280Z,-5.00
2022-12-16T12:14:08.857Z,-4.95
2022-12-16T12:17:06.890Z,-4.95
2022-12-16T12:20:04.230Z,-5.02
2022-12-16T12:22:54.657Z,-4.97
2022-12-16T12:25:47.018Z,-5.24
2022-12-16T12:28:42.967Z,-5.02
2022-12-16T12:31:44.793Z,-5.05
2022-12-16T12:34:39.255Z,-5.21
2022-12-16T12:37:31.893Z,-4.95
2022-12-16T12:40:27.653Z,-4.88
2022-12-16T12:43:15.457Z,-4.81
2022-12-16T12:46:14.278Z,-4.77
2022-12-16T12:49:22.677Z,-4.80
2022-12-16T12:52:16.626Z,-4.76
2022-12-16T12:55:12.300Z,-4.73
2022-12-16T12:58:00.885Z,-4.80
2022-12-16T13:00:54.392Z,-4.76
2022-12-16T13:03:52.471Z,-4.77
2022-12-16T13:06:47.010Z,-4.85
2022-12-16T13:09:44.287Z,-4.76
2022-12-16T13:12:44.072Z,-4.89
2022-12-16T13:15:36.859Z,-4.99
2022-12-16T13:18:49.939Z,-5.07
2022-12-16T13:22:08.037Z,-4.99
2022-12-16T13:25:01.546Z,-4.91
2022-12-16T13:27:50.006Z,-4.84
2022-12-16T13:30:41.728Z,-5.01
2022-12-16T13:33:43.043Z,-4.96
2022-12-16T13:36:31.328Z,-4.88
2022-12-16T13:39:30.629Z,-4.95
2022-12-16T13:42:19.529Z,-4.80
2022-12-16T13:45:18.096Z,-4.93
2022-12-16T13:48:24.445Z,-4.85
2022-12-16T13:51:18.517Z,-5.01
2022-12-16T13:54:10.181Z,-4.72
2022-12-16T13:57:01.088Z,-4.85
2022-12-16T13:59:50.226Z,-4.78
2022-12-16T14:02:45.875Z,-4.79
2022-12-16T14:05:41.884Z,-4.82
2022-12-16T14:08:34.625Z,-4.76
2022-12-16T14:11:23.290Z,-4.76
2022-12-16T14:14:18.205Z,-4.78
2022-12-16T14:17:18.944Z,-4.79
2022-12-16T14:20:15.567Z,-5.05
2022-12-16T14:23:32.507Z,-4.73
2022-12-16T14:26:21.965Z,-4.64
2022-12-16T14:29:07.801Z,-4.68
2022-12-16T14:31:56.797Z,-4.64
2022-12-16T14:34:46.178Z,-4.83
2022-12-16T14:37:32.440Z,-4.74
2022-12-16T14:40:32.615Z,-4.78
2022-12-16T14:43:18.356Z,-4.73
2022-12-16T14:46:08.580Z,-4.70
2022-12-16T14:48:57.582Z,-4.69
2022-12-16T14:51:45.303Z,-4.68
2022-12-16T14:54:40.210Z,-4.72
2022-12-16T14:57:33.297Z,-4.65
2022-12-16T15:00:20.327Z,-4.60
2022-12-16T15:03:11.051Z,-4.64
2022-12-16T15:06:00.093Z,-4.60
2022-12-16T15:08:50.723Z,-4.59
2022-12-16T15:11:39.308Z,-4.55
2022-12-16T15:14:31.627Z,-4.53
2022-12-16T15:17:18.762Z,-4.41
2022-12-16T15:20:12.925Z,-4.36
2022-12-16T15:23:07.501Z,-4.69
2022-12-16T15:25:54.741Z,-4.32
2022-12-16T15:28:44.977Z,-4.40
2022-12-16T15:31:43.545Z,-4.21
2022-12-16T15:34:47.920Z,-4.18
2022-12-16T15:37:40.533Z,-4.46
2022-12-16T15:40:52.087Z,-4.11
2022-12-16T15:43:45.838Z,-4.12
2022-12-16T15:46:40.294Z,-4.13
2022-12-16T15:49:37.841Z,-4.11
2022-12-16T15:52:42.174Z,-4.11
2022-12-16T15:55:48.924Z,-4.36
2022-12-16T15:58:42.235Z,-4.07
2022-12-16T16:01:32.750Z,-4.04
2022-12-16T16:04:18.663Z,-3.99
2022-12-16T16:07:07.578Z,-3.96
2022-12-16T16:09:54.781Z,-3.97
2022-12-16T16:12:45.270Z,-3.92
2022-12-16T16:15:33.484Z,-3.86
2022-12-16T16:18:22.315Z,-3.84
2022-12-16T16:21:08.976Z,-3.86
2022-12-16T16:23:55.041Z,-3.86
2022-12-16T16:26:45.366Z,-3.79
2022-12-16T16:29:33.885Z,-4.10
2022-12-16T16:32:20.408Z,-3.77
2022-12-16T16:35:10.764Z,-3.73
2022-12-16T16:37:57.291Z,-3.68
2022-12-16T16:40:50.337Z,-3.40
2022-12-16T16:43:36.841Z,-3.42
2022-12-16T16:46:40.650Z,-3.48
2022-12-16T16:49:28.192Z,-3.49
2022-12-16T16:52:14.709Z,-3.51
2022-12-16T16:55:00.747Z,-3.48
2022-12-16T16:57:51.016Z,-3.53
2022-12-16T17:00:37.324Z,-3.61
2022-12-16T17:03:25.133Z,-3.69
2022-12-16T17:06:11.200Z,-3.69
2022-12-16T17:08:57.565Z,-3.60
2022-12-16T17:11:45.078Z,-3.60
2022-12-16T17:14:32.443Z,-3.62
2022-12-16T17:17:18.425Z,-3.58
2022-12-16T17:20:07.441Z,-3.63
2022-12-16T17:22:53.377Z,-3.62
2022-12-16T17:25:42.099Z,-3.83
2022-12-16T17:28:29.294Z,-3.62
2022-12-16T17:31:15.871Z,-3.73
2022-12-16T17:34:03.736Z,-3.67
2022-12-16T17:36:51.368Z,-3.67
2022-12-16T17:39:37.642Z,-3.61
2022-12-16T17:42:24.654Z,-3.55
2022-12-16T17:45:10.369Z,-3.49
2022-12-16T17:47:56.543Z,-3.52
2022-12-16T17:50:42.400Z,-3.54
2022-12-16T17:53:30.036Z,-3.67
2022-12-16T17:56:21.823Z,-3.56
2022-12-16T17:59:10.954Z,-3.56
2022-12-16T18:01:56.958Z,-3.49
2022-12-16T18:04:43.128Z,-3.54
2022-12-16T18:07:44.279Z,-3.53
2022-12-16T18:10:31.422Z,-3.58
2022-12-16T18:13:17.138Z,-3.54
2022-12-16T18:16:09.660Z,-3.56
2022-12-16T18:18:55.459Z,-3.54
2022-12-16T18:21:41.544Z,-3.46
2022-12-16T18:24:27.921Z,-3.50
2022-12-16T18:27:15.180Z,-3.39
2022-12-16T18:30:01.181Z,-3.42
2022-12-16T18:32:46.962Z,-3.46
2022-12-16T18:35:32.695Z,-3.41
2022-12-16T18:38:18.695Z,-3.34
2022-12-16T18:41:04.550Z,-3.30
2022-12-16T18:43:51.695Z,-3.32
2022-12-16T18:46:37.580Z,-3.39
2022-12-16T18:49:23.791Z,-3.32
2022-12-16T18:52:09.486Z,-3.26
2022-12-16T18:54:55.610Z,-3.27
2022-12-16T18:57:41.242Z,-3.23
2022-12-16T19:00:29.722Z,-3.28
2022-12-16T19:03:15.653Z,-3.28
2022-12-16T19:06:02.067Z,-3.25
2022-12-16T19:08:48.127Z,-3.26
2022-12-16T19:11:35.909Z,-3.31
2022-12-16T19:14:23.940Z,-3.27
2022-12-16T19:17:11.791Z,-3.40
2022-12-16T19:19:57.362Z,-3.32
2022-12-16T19:22:43.751Z,-3.30
2022-12-16T19:25:29.659Z,-3.21
2022-12-16T19:28:16.904Z,-3.17
2022-12-16T19:31:02.786Z,-3.25
2022-12-16T19:33:49.962Z,-3.23
2022-12-16T19:36:36.217Z,-3.24
2022-12-16T19:39:23.456Z,-3.18
2022-12-16T19:42:09.142Z,-3.20
2022-12-16T19:44:56.053Z,-3.17
2022-12-16T19:47:42.388Z,-3.18
2022-12-16T19:50:44.642Z,-3.08
2022-12-16T19:53:30.627Z,-2.99
2022-12-16T19:56:18.003Z,-3.13
2022-12-16T19:59:04.182Z,-2.98
2022-12-16T20:01:50.492Z,-3.37
2022-12-16T20:04:37.780Z,-2.95
2022-12-16T20:07:24.993Z,-2.93
2022-12-16T20:10:11.972Z,-2.91
2022-12-16T20:12:58.049Z,-2.95
2022-12-16T20:15:43.696Z,-2.87
2022-12-16T20:18:44.472Z,-2.91
2022-12-16T20:21:30.975Z,-2.83
2022-12-16T20:24:18.491Z,-2.81
2022-12-16T20:27:04.668Z,-2.80
2022-12-16T20:29:51.587Z,-2.80
2022-12-16T20:32:37.162Z,-2.82
2022-12-16T20:35:23.310Z,-2.81
2022-12-16T20:38:08.907Z,-2.74
2022-12-16T20:40:56.381Z,-2.70
2022-12-16T20:43:42.718Z,-2.71
2022-12-16T20:46:28.709Z,-2.77
2022-12-16T20:49:14.806Z,-2.66
2022-12-16T20:52:01.141Z,-2.62
2022-12-16T20:54:48.923Z,-2.60
2022-12-16T20:57:38.958Z,-2.54
2022-12-16T21:00:25.894Z,-2.51
2022-12-16T21:03:15.204Z,-2.46
2022-12-16T21:06:00.936Z,-2.53
2022-12-16T21:08:48.648Z,-2.49
2022-12-16T21:11:34.846Z,-2.54
2022-12-16T21:14:22.087Z,-2.44
2022-12-16T21:17:08.787Z,-2.41
2022-12-16T21:19:56.155Z,-2.79
2022-12-16T21:22:41.790Z,-2.55
2022-12-16T21:25:28.223Z,-2.50
2022-12-16T21:28:15.929Z,-2.50
2022-12-16T21:31:04.653Z,-2.44
2022-12-16T21:33:50.698Z,-2.41
2022-12-16T21:36:37.996Z,-2.42
2022-12-16T21:39:39.342Z,-2.39
2022-12-16T21:42:33.142Z,-2.35
2022-12-16T21:45:17.266Z,-2.45
2022-12-16T21:48:04.943Z,-2.41
2022-12-16T21:50:51.798Z,-2.40
2022-12-16T21:53:38.976Z,-2.39
2022-12-16T21:56:25.087Z,-2.50
2022-12-16T21:59:11.220Z,-2.48
2022-12-16T22:01:57.036Z,-2.44
2022-12-16T22:04:44.816Z,-2.41
2022-12-16T22:07:30.784Z,-2.34
2022-12-16T22:10:16.909Z,-2.39
2022-12-16T22:13:03.295Z,-2.37
2022-12-16T22:15:49.117Z,-2.38
2022-12-16T22:18:35.779Z,-2.29
2022-12-16T22:21:24.593Z,-2.32
2022-12-16T22:24:10.257Z,-2.29
2022-12-16T22:26:56.631Z,-2.35
2022-12-16T22:29:42.454Z,-2.31
2022-12-16T22:32:28.321Z,-2.29
2022-12-16T22:35:14.134Z,-2.30
2022-12-16T22:38:01.592Z,-2.26
2022-12-16T22:40:47.389Z,-2.22
2022-12-16T22:43:47.975Z,-2.29
2022-12-16T22:46:34.437Z,-2.25
2022-12-16T22:49:20.534Z,-2.27
2022-12-16T22:52:06.407Z,-2.27
2022-12-16T22:54:53.617Z,-2.24
2022-12-16T22:57:39.381Z,-2.25
2022-12-16T23:00:27.128Z,-2.30
2022-12-16T23:03:15.899Z,-2.25
2022-12-16T23:05:58.825Z,-2.17
2022-12-16T23:08:44.511Z,-2.14
2022-12-16T23:11:38.097Z,-2.27
2022-12-16T23:14:23.671Z,-2.11
2022-12-16T23:17:10.271Z,-2.48
2022-12-16T23:19:56.575Z,-2.09
2022-12-16T23:22:43.124Z,-2.07
2022-12-16T23:25:28.717Z,-2.09
2022-12-16T23:28:16.017Z,-2.12
2022-12-16T23:31:02.470Z,-2.10
2022-12-16T23:33:48.608Z,-2.08
2022-12-16T23:36:48.949Z,-2.11
2022-12-16T23:39:37.304Z,-2.12
2022-12-16T23:42:23.149Z,-2.10
2022-12-16T23:45:10.791Z,-2.09
2022-12-16T23:47:56.678Z,-2.09
2022-12-16T23:50:42.804Z,-2.13
2022-12-16T23:53:29.356Z,-2.12
2022-12-16T23:56:17.219Z,-2.14
2022-12-16T23:59:05.159Z,-2.16
